Date,TemperatureHighF,TemperatureAvgF,TemperatureLowF,DewpointHighF,DewpointAvgF,DewpointLowF,HumidityHigh,HumidityAvg,HumidityLow,PressureMaxIn,PressureMinIn,WindSpeedMaxMPH,WindSpeedAvgMPH,GustSpeedMaxMPH,PrecipitationSumIn
2013-3-1,68.9,62.9,58.6,59.5,53.5,48.4,93,72,58,29.88,29.79,10,3,12,0.00
2013-3-2,70.2,58.9,50.7,49.1,43.9,39.2,77,59,38,29.94,29.83,22,5,22,0.00
2013-3-3,66.9,56.7,49.5,49.8,44.3,41.0,86,65,41,30.04,29.86,17,4,17,0.00
2013-3-4,77.0,56.5,43.0,45.1,39.1,20.3,82,57,15,30.12,30.01,14,3,14,0.00
2013-3-5,79.5,64.7,48.6,61.5,54.3,44.4,99,72,46,30.09,29.96,17,3,17,0.00
2013-3-6,82.8,66.6,52.2,67.6,53.4,28.9,99,68,22,30.00,29.84,16,5,16,0.00
2013-3-7,81.3,60.6,45.9,56.3,43.7,37.8,97,59,24,30.08,29.97,15,3,15,0.00
2013-3-8,84.0,65.6,52.2,55.8,51.0,37.4,99,67,20,30.10,29.99,11,2,11,0.00
2013-3-9,81.5,66.3,54.0,60.6,55.4,51.3,99,70,44,30.09,29.99,15,3,15,0.00
2013-3-10,77.2,70.7,63.7,62.2,57.1,54.0,74,63,50,30.04,29.94,17,6,20,0.00
2013-3-11,80.6,72.8,68.7,64.2,62.2,59.5,79,70,56,29.99,29.83,20,7,20,0.00
2013-3-12,85.5,74.7,68.0,71.1,67.3,62.8,92,78,60,29.89,29.80,15,4,175,0.00
2013-3-13,82.8,68.3,56.8,68.0,55.8,42.4,99,69,27,30.01,29.86,18,4,18,0.00
2013-3-14,79.2,63.6,53.4,55.6,46.3,32.2,93,59,21,30.10,29.98,16,4,16,0.00
2013-3-15,79.9,64.3,52.7,55.4,50.4,46.4,89,64,33,30.15,30.03,14,3,14,0.00
2013-3-16,80.1,66.1,52.7,63.1,55.2,52.3,99,72,40,30.09,29.97,15,3,15,0.00
2013-3-17,79.2,68.0,55.8,66.4,59.5,54.7,99,77,51,30.04,29.91,17,3,17,0.00
2013-3-18,81.7,72.3,63.0,72.9,67.6,61.2,99,86,63,29.96,29.85,17,3,17,0.06
2013-3-19,86.9,73.9,67.1,73.2,69.4,66.6,99,88,55,29.91,29.73,12,2,12,0.08
2013-3-20,87.8,72.1,63.3,79.5,67.5,63.0,99,88,50,29.87,29.78,9,1,9,0.00